Language selection

Features

My Weather Profile Weather Topics  | 

Pacific - North Coast: Past 24 Hour Conditions

 

Bella Bella Airport

05:00 PM PST 18 January 2020
Disclaimer

This table is a summary of hourly weather conditions for the past 24 hours.
Please note that these observations might not always be representative of weather conditions over their associated marine area.

Date / Time
(PST)
Wind(knots) Conditions Visibility(km) Pressure(kPa) Air tempC) Relative humidity(%) Dew pointC) Wind Chill
18 January 2020
17:00 ESE 13 gust 18 Freezing Rain 16 100.6 0 89 -2 *
16:00 ESE 12 gust 21 Light Snow 16 100.6 -1 89 -2 -6
15:00 SE 11 gust 19 Light Snow 16 100.7 0 89 -2 -6
14:00 ESE 12 Light Snow 16 100.7 0 90 -2 -6
13:00 ESE 10 gust 18 Light Rain 16 100.7 0 88 -2 -5
12:00 ESE 10 gust 18 Light Freezing Rain 15 100.6 0 88 -2 -5
11:00 ESE 8 gust 15 Light Snow 4 100.5 0 88 -2 -5
10:00 E 10 gust 19 Light Snow 16 100.3 -1 83 -4 -6
9:00 SE 16 gust 22 Light Snow 16 100.3 -2 87 -4 -9
8:00 SE 18 Light Snow 6 100.2 -2 91 -3 -9
7:00 SE 14 gust 19 Light Snow 1 100.1 -1 93 -2 -8
6:00 SE 12 gust 19 Precipitation 11 99.9 0 69 -5 *
5:00 SE 13 gust 18 Cloudy 16 99.8 1 62 -6 *
4:00 ESE 13 gust 18 Cloudy 16 99.9 0 66 -6 -6
3:00 N/A N/A N/A 100.0 0 74 -5 *
2:00 SE 10 gust 18 Light Snow 16 100.1 -1 82 -4 -6
1:00 ESE 6 gust 15 Light Snow 16 100.2 -1 82 -4 -4
0:00 ESE 8 gust 16 Light Snow 16 100.3 -1 76 -4 -5
17 January 2020
23:00 ESE 6 Light Snow 2 100.5 -2 83 -4 -6
22:00 ESE 4 Cloudy 16 100.7 -2 58 -9 -5
21:00 SE 4 Cloudy 16 100.9 -2 55 -10 -5
20:00 ESE 10 gust 16 Cloudy 16 101.1 -3 56 -10 -8
19:00 SE 10 gust 16 Cloudy 16 101.2 -4 60 -10 -10
18:00 SE 9 gust 15 Cloudy 16 101.3 -4 60 -10 -9
17:00 SE 8 Cloudy 16 101.4 -4 61 -10 -9

Zoom-in to make a selection

Map of Pacific - North Coast marine weather areas Middle Nomad - 46004 South Nomad - 46036 Dixon Entrance Central - 46145 South Moresby - 46147 Nanakwa Shoal - 46181 North Hecate Strait - 46183 North Nomad - 46184 South Hecate Strait - 46185 West Sea Otter - 46204 West Dixon Entrance - 46205 East Dellwood - 46207 West Moresby - 46208 Sartine Island Cape St.James Kindakun Rocks Langara Island Masset Municipal Airport Rose Spit Sandspit Airport Bella Bella Airport Bella Coola Airport Bonilla Island Cathedral Point Cumshewa Island Grey Islet Holland Rock Lucy Islands Lightstation Prince Rupert Airport
Legend:
buoy Buoy
land station Land Station

Pacific - North Coast Area

Another Region

What we are doing

Date modified: